sensor_id;sensor_type;location;lat;lon;timestamp;pressure;altitude;pressure_sealevel;temperature
76541;BMP280;65385;55.772;37.658;2023-06-19T00:00:57;100033.03;;;14.62
76541;BMP280;65385;55.772;37.658;2023-06-19T00:01:58;100034.34;;;14.60
76541;BMP280;65385;55.772;37.658;2023-06-19T00:02:59;100024.94;;;14.54
76541;BMP280;65385;55.772;37.658;2023-06-19T00:03:59;100037.78;;;14.60
76541;BMP280;65385;55.772;37.658;2023-06-19T00:05:00;100027.50;;;14.59
76541;BMP280;65385;55.772;37.658;2023-06-19T00:06:00;100032.78;;;14.59
76541;BMP280;65385;55.772;37.658;2023-06-19T00:07:01;100034.94;;;14.57
76541;BMP280;65385;55.772;37.658;2023-06-19T00:08:02;100026.78;;;14.53
76541;BMP280;65385;55.772;37.658;2023-06-19T00:09:06;100037.31;;;14.53
76541;BMP280;65385;55.772;37.658;2023-06-19T00:10:07;100032.63;;;14.50
76541;BMP280;65385;55.772;37.658;2023-06-19T00:11:08;100033.16;;;14.47
76541;BMP280;65385;55.772;37.658;2023-06-19T00:12:09;100035.78;;;14.47
76541;BMP280;65385;55.772;37.658;2023-06-19T00:13:12;100037.13;;;14.45
76541;BMP280;65385;55.772;37.658;2023-06-19T00:14:12;100029.28;;;14.40
76541;BMP280;65385;55.772;37.658;2023-06-19T00:15:14;100042.16;;;14.41
76541;BMP280;65385;55.772;37.658;2023-06-19T00:16:14;100045.31;;;14.43
76541;BMP280;65385;55.772;37.658;2023-06-19T00:17:15;100033.22;;;14.42
76541;BMP280;65385;55.772;37.658;2023-06-19T00:18:17;100039.03;;;14.39
76541;BMP280;65385;55.772;37.658;2023-06-19T00:19:20;100032.78;;;14.35
76541;BMP280;65385;55.772;37.658;2023-06-19T00:20:20;100032.25;;;14.33
76541;BMP280;65385;55.772;37.658;2023-06-19T00:21:22;100034.34;;;14.31
76541;BMP280;65385;55.772;37.658;2023-06-19T00:22:26;100032.31;;;14.28
76541;BMP280;65385;55.772;37.658;2023-06-19T00:23:27;100037.25;;;14.29
76541;BMP280;65385;55.772;37.658;2023-06-19T00:24:27;100041.78;;;14.29
76541;BMP280;65385;55.772;37.658;2023-06-19T00:25:28;100034.94;;;14.28
76541;BMP280;65385;55.772;37.658;2023-06-19T00:26:28;100038.34;;;14.28
76541;BMP280;65385;55.772;37.658;2023-06-19T00:27:29;100043.63;;;14.28
76541;BMP280;65385;55.772;37.658;2023-06-19T00:28:30;100038.63;;;14.27
76541;BMP280;65385;55.772;37.658;2023-06-19T00:29:31;100040.72;;;14.25
76541;BMP280;65385;55.772;37.658;2023-06-19T00:30:32;100033.16;;;14.18
76541;BMP280;65385;55.772;37.658;2023-06-19T00:31:33;100025.81;;;14.15
76541;BMP280;65385;55.772;37.658;2023-06-19T00:32:37;100038.16;;;14.15
76541;BMP280;65385;55.772;37.658;2023-06-19T00:33:46;100034.78;;;14.09
76541;BMP280;65385;55.772;37.658;2023-06-19T00:34:52;100036.09;;;14.12
76541;BMP280;65385;55.772;37.658;2023-06-19T00:35:53;100031.34;;;14.14
76541;BMP280;65385;55.772;37.658;2023-06-19T00:36:55;100037.13;;;14.16
76541;BMP280;65385;55.772;37.658;2023-06-19T00:37:59;100035.03;;;14.13
76541;BMP280;65385;55.772;37.658;2023-06-19T00:39:03;100034.53;;;14.11
76541;BMP280;65385;55.772;37.658;2023-06-19T00:40:05;100033.75;;;14.10
76541;BMP280;65385;55.772;37.658;2023-06-19T00:41:08;100035.59;;;14.10
76541;BMP280;65385;55.772;37.658;2023-06-19T00:42:09;100030.31;;;14.10
76541;BMP280;65385;55.772;37.658;2023-06-19T00:43:10;100039.28;;;14.09
76541;BMP280;65385;55.772;37.658;2023-06-19T00:44:11;100043.75;;;14.08
76541;BMP280;65385;55.772;37.658;2023-06-19T00:45:12;100039.28;;;14.09
76541;BMP280;65385;55.772;37.658;2023-06-19T00:46:12;100038.47;;;14.08
76541;BMP280;65385;55.772;37.658;2023-06-19T00:47:13;100040.06;;;14.09
76541;BMP280;65385;55.772;37.658;2023-06-19T00:48:15;100042.69;;;14.09
76541;BMP280;65385;55.772;37.658;2023-06-19T00:49:16;100038.47;;;14.08
76541;BMP280;65385;55.772;37.658;2023-06-19T00:50:16;100041.41;;;14.07
76541;BMP280;65385;55.772;37.658;2023-06-19T00:51:17;100033.78;;;14.05
76541;BMP280;65385;55.772;37.658;2023-06-19T00:52:19;100031.44;;;14.04
76541;BMP280;65385;55.772;37.658;2023-06-19T00:53:20;100036.13;;;14.07
76541;BMP280;65385;55.772;37.658;2023-06-19T00:54:21;100034.00;;;14.09
76541;BMP280;65385;55.772;37.658;2023-06-19T00:55:22;100035.03;;;14.13
76541;BMP280;65385;55.772;37.658;2023-06-19T00:56:22;100037.63;;;14.18
76541;BMP280;65385;55.772;37.658;2023-06-19T00:57:24;100034.97;;;14.23
76541;BMP280;65385;55.772;37.658;2023-06-19T00:58:25;100039.88;;;14.29
76541;BMP280;65385;55.772;37.658;2023-06-19T00:59:26;100036.47;;;14.34
76541;BMP280;65385;55.772;37.658;2023-06-19T01:00:27;100036.63;;;14.43
76541;BMP280;65385;55.772;37.658;2023-06-19T01:01:27;100038.94;;;14.49
76541;BMP280;65385;55.772;37.658;2023-06-19T01:02:28;100036.78;;;14.56
76541;BMP280;65385;55.772;37.658;2023-06-19T01:03:29;100037.75;;;14.65
76541;BMP280;65385;55.772;37.658;2023-06-19T01:04:30;100038.22;;;14.72
76541;BMP280;65385;55.772;37.658;2023-06-19T01:05:30;100040.22;;;14.80
76541;BMP280;65385;55.772;37.658;2023-06-19T01:06:37;100040.38;;;14.89
76541;BMP280;65385;55.772;37.658;2023-06-19T01:08:59;100047.06;;;15.05
76541;BMP280;65385;55.772;37.658;2023-06-19T01:10:07;100035.91;;;15.13
76541;BMP280;65385;55.772;37.658;2023-06-19T01:11:09;100047.69;;;15.21
76541;BMP280;65385;55.772;37.658;2023-06-19T01:12:40;100044.16;;;15.30
76541;BMP280;65385;55.772;37.658;2023-06-19T01:13:48;100035.63;;;15.38
76541;BMP280;65385;55.772;37.658;2023-06-19T01:14:58;100045.72;;;15.50
76541;BMP280;65385;55.772;37.658;2023-06-19T01:16:01;100039.31;;;15.56
76541;BMP280;65385;55.772;37.658;2023-06-19T01:17:03;100045.53;;;15.65
76541;BMP280;65385;55.772;37.658;2023-06-19T01:18:04;100037.53;;;15.70
76541;BMP280;65385;55.772;37.658;2023-06-19T01:19:06;100045.59;;;15.79
76541;BMP280;65385;55.772;37.658;2023-06-19T01:20:10;100045.75;;;15.87
76541;BMP280;65385;55.772;37.658;2023-06-19T01:21:15;100039.81;;;15.95
76541;BMP280;65385;55.772;37.658;2023-06-19T01:22:29;100043.84;;;16.07
76541;BMP280;65385;55.772;37.658;2023-06-19T01:23:34;100043.19;;;16.15
76541;BMP280;65385;55.772;37.658;2023-06-19T01:24:35;100034.88;;;16.21
76541;BMP280;65385;55.772;37.658;2023-06-19T01:25:36;100044.22;;;16.32
76541;BMP280;65385;55.772;37.658;2023-06-19T01:26:36;100047.72;;;16.41
76541;BMP280;65385;55.772;37.658;2023-06-19T01:27:38;100040.94;;;16.54
76541;BMP280;65385;55.772;37.658;2023-06-19T01:28:42;100032.31;;;16.62
76541;BMP280;65385;55.772;37.658;2023-06-19T01:29:43;100036.06;;;16.75
76541;BMP280;65385;55.772;37.658;2023-06-19T01:30:44;100041.03;;;16.90
76541;BMP280;65385;55.772;37.658;2023-06-19T01:32:05;100041.91;;;17.13
76541;BMP280;65385;55.772;37.658;2023-06-19T01:33:20;100041.97;;;17.35
76541;BMP280;65385;55.772;37.658;2023-06-19T01:34:25;100047.09;;;17.53
76541;BMP280;65385;55.772;37.658;2023-06-19T01:35:28;100048.78;;;17.72
76541;BMP280;65385;55.772;37.658;2023-06-19T01:36:30;100046.13;;;17.85
76541;BMP280;65385;55.772;37.658;2023-06-19T01:37:33;100050.28;;;18.00
76541;BMP280;65385;55.772;37.658;2023-06-19T01:38:35;100039.59;;;18.13
76541;BMP280;65385;55.772;37.658;2023-06-19T01:39:36;100039.97;;;18.29
76541;BMP280;65385;55.772;37.658;2023-06-19T01:40:37;100039.41;;;18.41
76541;BMP280;65385;55.772;37.658;2023-06-19T01:41:38;100045.97;;;18.52
76541;BMP280;65385;55.772;37.658;2023-06-19T01:42:40;100036.69;;;18.63
76541;BMP280;65385;55.772;37.658;2023-06-19T01:43:42;100047.63;;;18.70
76541;BMP280;65385;55.772;37.658;2023-06-19T01:44:42;100050.47;;;18.91
76541;BMP280;65385;55.772;37.658;2023-06-19T01:45:43;100047.41;;;19.06
76541;BMP280;65385;55.772;37.658;2023-06-19T01:46:47;100049.13;;;19.19
76541;BMP280;65385;55.772;37.658;2023-06-19T01:47:48;100047.41;;;19.31
76541;BMP280;65385;55.772;37.658;2023-06-19T01:48:49;100042.75;;;19.46
76541;BMP280;65385;55.772;37.658;2023-06-19T01:49:50;100041.16;;;19.62
76541;BMP280;65385;55.772;37.658;2023-06-19T01:50:51;100040.34;;;19.78
76541;BMP280;65385;55.772;37.658;2023-06-19T01:51:51;100043.94;;;19.82
76541;BMP280;65385;55.772;37.658;2023-06-19T01:52:52;100042.84;;;19.92
76541;BMP280;65385;55.772;37.658;2023-06-19T01:53:53;100039.97;;;20.06
76541;BMP280;65385;55.772;37.658;2023-06-19T01:54:54;100041.03;;;20.22
76541;BMP280;65385;55.772;37.658;2023-06-19T01:55:55;100038.72;;;20.41
76541;BMP280;65385;55.772;37.658;2023-06-19T01:56:57;100038.88;;;20.53
76541;BMP280;65385;55.772;37.658;2023-06-19T01:57:57;100038.13;;;20.73
76541;BMP280;65385;55.772;37.658;2023-06-19T01:58:58;100034.41;;;20.86
76541;BMP280;65385;55.772;37.658;2023-06-19T01:59:59;100032.00;;;21.02
76541;BMP280;65385;55.772;37.658;2023-06-19T02:01:01;100033.16;;;21.13
76541;BMP280;65385;55.772;37.658;2023-06-19T02:02:01;100031.88;;;21.31
76541;BMP280;65385;55.772;37.658;2023-06-19T02:03:04;100033.81;;;21.43
76541;BMP280;65385;55.772;37.658;2023-06-19T02:04:05;100029.75;;;21.57
76541;BMP280;65385;55.772;37.658;2023-06-19T02:05:06;100031.69;;;21.69
76541;BMP280;65385;55.772;37.658;2023-06-19T02:06:06;100032.63;;;21.85
76541;BMP280;65385;55.772;37.658;2023-06-19T02:07:07;100030.88;;;22.01
76541;BMP280;65385;55.772;37.658;2023-06-19T02:08:08;100035.97;;;22.06
76541;BMP280;65385;55.772;37.658;2023-06-19T02:09:11;100036.31;;;22.17
76541;BMP280;65385;55.772;37.658;2023-06-19T02:10:12;100033.22;;;22.27
76541;BMP280;65385;55.772;37.658;2023-06-19T02:11:13;100036.44;;;22.32
76541;BMP280;65385;55.772;37.658;2023-06-19T02:12:14;100039.78;;;22.29
76541;BMP280;65385;55.772;37.658;2023-06-19T02:13:15;100031.75;;;22.29
76541;BMP280;65385;55.772;37.658;2023-06-19T02:14:15;100031.22;;;22.36
76541;BMP280;65385;55.772;37.658;2023-06-19T02:15:16;100030.06;;;22.37
76541;BMP280;65385;55.772;37.658;2023-06-19T02:16:17;100027.22;;;22.42
76541;BMP280;65385;55.772;37.658;2023-06-19T02:17:18;100037.66;;;22.47
76541;BMP280;65385;55.772;37.658;2023-06-19T02:18:19;100033.53;;;22.49
76541;BMP280;65385;55.772;37.658;2023-06-19T02:19:20;100031.31;;;22.51
76541;BMP280;65385;55.772;37.658;2023-06-19T02:20:21;100030.06;;;22.61
76541;BMP280;65385;55.772;37.658;2023-06-19T02:21:22;100039.56;;;22.74
76541;BMP280;65385;55.772;37.658;2023-06-19T02:22:25;100031.66;;;22.90
76541;BMP280;65385;55.772;37.658;2023-06-19T02:23:28;100029.72;;;23.02
76541;BMP280;65385;55.772;37.658;2023-06-19T02:24:28;100030.81;;;23.13
76541;BMP280;65385;55.772;37.658;2023-06-19T02:25:29;100027.13;;;23.18
76541;BMP280;65385;55.772;37.658;2023-06-19T02:26:30;100025.75;;;23.24
76541;BMP280;65385;55.772;37.658;2023-06-19T02:27:30;100024.28;;;23.27
76541;BMP280;65385;55.772;37.658;2023-06-19T02:28:34;100024.75;;;23.29
76541;BMP280;65385;55.772;37.658;2023-06-19T02:29:34;100026.72;;;23.32
76541;BMP280;65385;55.772;37.658;2023-06-19T02:30:36;100029.72;;;23.30
76541;BMP280;65385;55.772;37.658;2023-06-19T02:31:37;100020.06;;;23.26
76541;BMP280;65385;55.772;37.658;2023-06-19T02:32:40;100019.81;;;23.31
76541;BMP280;65385;55.772;37.658;2023-06-19T02:33:40;100018.13;;;23.38
76541;BMP280;65385;55.772;37.658;2023-06-19T02:34:41;100020.09;;;23.41
76541;BMP280;65385;55.772;37.658;2023-06-19T02:35:41;100030.56;;;23.62
76541;BMP280;65385;55.772;37.658;2023-06-19T02:36:42;100026.44;;;23.80
76541;BMP280;65385;55.772;37.658;2023-06-19T02:37:43;100018.47;;;23.99
76541;BMP280;65385;55.772;37.658;2023-06-19T02:38:47;100020.47;;;24.18
76541;BMP280;65385;55.772;37.658;2023-06-19T02:39:49;100021.09;;;24.30
76541;BMP280;65385;55.772;37.658;2023-06-19T02:40:49;100016.75;;;24.41
76541;BMP280;65385;55.772;37.658;2023-06-19T02:41:50;100013.44;;;24.48
76541;BMP280;65385;55.772;37.658;2023-06-19T02:42:50;100022.41;;;24.55
76541;BMP280;65385;55.772;37.658;2023-06-19T02:43:51;100024.16;;;24.48
76541;BMP280;65385;55.772;37.658;2023-06-19T02:44:51;100030.66;;;24.66
76541;BMP280;65385;55.772;37.658;2023-06-19T02:45:53;100032.72;;;24.73
76541;BMP280;65385;55.772;37.658;2023-06-19T02:46:53;100027.59;;;24.48
76541;BMP280;65385;55.772;37.658;2023-06-19T02:47:54;100033.41;;;24.50
76541;BMP280;65385;55.772;37.658;2023-06-19T02:48:55;100024.91;;;24.64
76541;BMP280;65385;55.772;37.658;2023-06-19T02:49:57;100028.28;;;24.80
76541;BMP280;65385;55.772;37.658;2023-06-19T02:50:58;100036.09;;;25.08
76541;BMP280;65385;55.772;37.658;2023-06-19T02:51:58;100028.75;;;25.24
76541;BMP280;65385;55.772;37.658;2023-06-19T02:53:00;100024.53;;;25.46
76541;BMP280;65385;55.772;37.658;2023-06-19T02:54:00;100027.13;;;25.65
76541;BMP280;65385;55.772;37.658;2023-06-19T02:55:01;100021.75;;;25.87
76541;BMP280;65385;55.772;37.658;2023-06-19T02:56:03;100023.63;;;26.10
76541;BMP280;65385;55.772;37.658;2023-06-19T02:57:04;100026.09;;;26.22
76541;BMP280;65385;55.772;37.658;2023-06-19T02:58:05;100025.03;;;26.30
76541;BMP280;65385;55.772;37.658;2023-06-19T02:59:06;100020.25;;;26.46
76541;BMP280;65385;55.772;37.658;2023-06-19T03:00:07;100019.22;;;26.54
76541;BMP280;65385;55.772;37.658;2023-06-19T03:01:09;100017.66;;;26.53
76541;BMP280;65385;55.772;37.658;2023-06-19T03:02:11;100012.22;;;26.79
76541;BMP280;65385;55.772;37.658;2023-06-19T03:03:11;100014.22;;;26.86
76541;BMP280;65385;55.772;37.658;2023-06-19T03:04:12;100009.72;;;26.93
76541;BMP280;65385;55.772;37.658;2023-06-19T03:05:13;100017.34;;;26.95
76541;BMP280;65385;55.772;37.658;2023-06-19T03:06:16;100017.53;;;27.09
76541;BMP280;65385;55.772;37.658;2023-06-19T03:07:18;100016.06;;;27.15
76541;BMP280;65385;55.772;37.658;2023-06-19T03:08:18;100011.91;;;27.24
76541;BMP280;65385;55.772;37.658;2023-06-19T03:09:19;100010.69;;;27.15
76541;BMP280;65385;55.772;37.658;2023-06-19T03:10:19;100010.81;;;27.32
76541;BMP280;65385;55.772;37.658;2023-06-19T03:11:20;100007.38;;;27.35
76541;BMP280;65385;55.772;37.658;2023-06-19T03:12:21;100007.03;;;27.37
76541;BMP280;65385;55.772;37.658;2023-06-19T03:13:21;100012.41;;;27.40
76541;BMP280;65385;55.772;37.658;2023-06-19T03:14:22;100007.22;;;27.62
76541;BMP280;65385;55.772;37.658;2023-06-19T03:15:23;100005.63;;;27.57
76541;BMP280;65385;55.772;37.658;2023-06-19T03:16:24;100003.09;;;27.82
76541;BMP280;65385;55.772;37.658;2023-06-19T03:17:25;100009.38;;;28.00
76541;BMP280;65385;55.772;37.658;2023-06-19T03:18:25;100007.84;;;28.06
76541;BMP280;65385;55.772;37.658;2023-06-19T03:19:26;100005.16;;;27.99
76541;BMP280;65385;55.772;37.658;2023-06-19T03:20:27;100008.91;;;27.91
76541;BMP280;65385;55.772;37.658;2023-06-19T03:21:31;100009.69;;;27.91
76541;BMP280;65385;55.772;37.658;2023-06-19T03:22:32;100011.31;;;28.03
76541;BMP280;65385;55.772;37.658;2023-06-19T03:23:32;100015.22;;;28.16
76541;BMP280;65385;55.772;37.658;2023-06-19T03:24:33;100011.03;;;28.26
76541;BMP280;65385;55.772;37.658;2023-06-19T03:25:47;100009.97;;;28.44
76541;BMP280;65385;55.772;37.658;2023-06-19T03:26:48;100018.81;;;28.62
76541;BMP280;65385;55.772;37.658;2023-06-19T03:27:49;100022.34;;;28.84
76541;BMP280;65385;55.772;37.658;2023-06-19T03:28:49;100004.69;;;29.00
76541;BMP280;65385;55.772;37.658;2023-06-19T03:29:50;100007.75;;;29.10
76541;BMP280;65385;55.772;37.658;2023-06-19T03:30:57;100013.91;;;29.07
76541;BMP280;65385;55.772;37.658;2023-06-19T03:31:59;100015.47;;;28.97
76541;BMP280;65385;55.772;37.658;2023-06-19T03:33:05;100016.22;;;29.01
76541;BMP280;65385;55.772;37.658;2023-06-19T03:34:16;100019.31;;;28.82
76541;BMP280;65385;55.772;37.658;2023-06-19T03:35:17;100021.56;;;28.83
76541;BMP280;65385;55.772;37.658;2023-06-19T03:36:18;100028.47;;;28.53
76541;BMP280;65385;55.772;37.658;2023-06-19T03:37:24;100021.41;;;28.23
76541;BMP280;65385;55.772;37.658;2023-06-19T03:38:24;100019.00;;;28.04
76541;BMP280;65385;55.772;37.658;2023-06-19T03:39:26;100025.94;;;28.09
76541;BMP280;65385;55.772;37.658;2023-06-19T03:40:32;100027.50;;;28.13
76541;BMP280;65385;55.772;37.658;2023-06-19T03:41:38;100022.94;;;28.21
76541;BMP280;65385;55.772;37.658;2023-06-19T03:42:39;100016.78;;;28.24
76541;BMP280;65385;55.772;37.658;2023-06-19T03:43:40;100021.13;;;28.53
76541;BMP280;65385;55.772;37.658;2023-06-19T03:44:41;100021.97;;;28.75
76541;BMP280;65385;55.772;37.658;2023-06-19T03:45:42;100012.00;;;28.96
76541;BMP280;65385;55.772;37.658;2023-06-19T03:46:43;100025.84;;;29.13
76541;BMP280;65385;55.772;37.658;2023-06-19T03:47:43;100017.78;;;29.23
76541;BMP280;65385;55.772;37.658;2023-06-19T03:48:44;100014.69;;;29.39
76541;BMP280;65385;55.772;37.658;2023-06-19T03:49:45;100017.41;;;29.46
76541;BMP280;65385;55.772;37.658;2023-06-19T03:50:45;100011.63;;;29.47
76541;BMP280;65385;55.772;37.658;2023-06-19T03:51:46;100014.66;;;29.63
76541;BMP280;65385;55.772;37.658;2023-06-19T03:52:47;100012.69;;;29.78
76541;BMP280;65385;55.772;37.658;2023-06-19T03:53:48;100012.31;;;29.83
76541;BMP280;65385;55.772;37.658;2023-06-19T03:54:52;100013.03;;;29.98
76541;BMP280;65385;55.772;37.658;2023-06-19T03:55:53;100014.53;;;30.02
76541;BMP280;65385;55.772;37.658;2023-06-19T03:56:53;100014.53;;;30.09
76541;BMP280;65385;55.772;37.658;2023-06-19T03:57:54;100013.66;;;30.30
76541;BMP280;65385;55.772;37.658;2023-06-19T03:58:56;100009.19;;;29.99
76541;BMP280;65385;55.772;37.658;2023-06-19T03:59:57;100011.06;;;30.12
76541;BMP280;65385;55.772;37.658;2023-06-19T04:00:58;100015.25;;;30.17
76541;BMP280;65385;55.772;37.658;2023-06-19T04:01:59;100021.84;;;30.09
76541;BMP280;65385;55.772;37.658;2023-06-19T04:02:59;100019.09;;;30.26
76541;BMP280;65385;55.772;37.658;2023-06-19T04:04:00;100024.44;;;30.37
76541;BMP280;65385;55.772;37.658;2023-06-19T04:05:01;100016.63;;;30.56
76541;BMP280;65385;55.772;37.658;2023-06-19T04:06:02;100022.84;;;30.46
76541;BMP280;65385;55.772;37.658;2023-06-19T04:07:03;100020.78;;;30.72
76541;BMP280;65385;55.772;37.658;2023-06-19T04:08:03;100030.03;;;30.71
76541;BMP280;65385;55.772;37.658;2023-06-19T04:09:04;100024.97;;;30.73
76541;BMP280;65385;55.772;37.658;2023-06-19T04:10:05;100016.25;;;30.54
76541;BMP280;65385;55.772;37.658;2023-06-19T04:11:06;100016.53;;;30.71
76541;BMP280;65385;55.772;37.658;2023-06-19T04:12:07;100017.41;;;30.53
76541;BMP280;65385;55.772;37.658;2023-06-19T04:13:08;100015.75;;;30.66
76541;BMP280;65385;55.772;37.658;2023-06-19T04:14:09;100023.09;;;30.69
76541;BMP280;65385;55.772;37.658;2023-06-19T04:15:10;100030.56;;;30.48
76541;BMP280;65385;55.772;37.658;2023-06-19T04:16:11;100023.56;;;30.50
76541;BMP280;65385;55.772;37.658;2023-06-19T04:17:13;100029.72;;;30.58
76541;BMP280;65385;55.772;37.658;2023-06-19T04:18:14;100020.91;;;30.47
76541;BMP280;65385;55.772;37.658;2023-06-19T04:19:15;100016.75;;;30.32
76541;BMP280;65385;55.772;37.658;2023-06-19T04:20:15;100019.81;;;30.37
76541;BMP280;65385;55.772;37.658;2023-06-19T04:21:16;100009.88;;;30.20
76541;BMP280;65385;55.772;37.658;2023-06-19T04:22:17;100013.38;;;30.10
76541;BMP280;65385;55.772;37.658;2023-06-19T04:23:17;100009.88;;;30.17
76541;BMP280;65385;55.772;37.658;2023-06-19T04:24:18;100018.16;;;30.50
76541;BMP280;65385;55.772;37.658;2023-06-19T04:25:20;100018.16;;;30.54
76541;BMP280;65385;55.772;37.658;2023-06-19T04:26:20;100016.25;;;30.51
76541;BMP280;65385;55.772;37.658;2023-06-19T04:27:21;100023.16;;;30.59
76541;BMP280;65385;55.772;37.658;2023-06-19T04:28:22;100026.84;;;30.86
76541;BMP280;65385;55.772;37.658;2023-06-19T04:29:23;100019.97;;;30.75
76541;BMP280;65385;55.772;37.658;2023-06-19T04:30:23;100024.13;;;30.86
76541;BMP280;65385;55.772;37.658;2023-06-19T04:31:24;100023.50;;;30.72
76541;BMP280;65385;55.772;37.658;2023-06-19T04:32:26;100026.56;;;30.66
76541;BMP280;65385;55.772;37.658;2023-06-19T04:33:28;100016.31;;;30.44
76541;BMP280;65385;55.772;37.658;2023-06-19T04:34:30;100019.94;;;30.09
76541;BMP280;65385;55.772;37.658;2023-06-19T04:35:32;100021.88;;;30.05
76541;BMP280;65385;55.772;37.658;2023-06-19T04:36:32;100014.59;;;29.95
76541;BMP280;65385;55.772;37.658;2023-06-19T04:37:33;100014.09;;;30.21
76541;BMP280;65385;55.772;37.658;2023-06-19T04:38:33;100016.69;;;30.39
76541;BMP280;65385;55.772;37.658;2023-06-19T04:39:34;100010.91;;;30.37
76541;BMP280;65385;55.772;37.658;2023-06-19T04:40:35;100016.69;;;30.42
76541;BMP280;65385;55.772;37.658;2023-06-19T04:41:36;100018.53;;;30.52
76541;BMP280;65385;55.772;37.658;2023-06-19T04:42:38;100021.16;;;30.70
76541;BMP280;65385;55.772;37.658;2023-06-19T04:43:39;100027.19;;;30.92
76541;BMP280;65385;55.772;37.658;2023-06-19T04:44:42;100020.69;;;30.82
76541;BMP280;65385;55.772;37.658;2023-06-19T04:45:42;100016.84;;;30.80
76541;BMP280;65385;55.772;37.658;2023-06-19T04:46:43;100011.16;;;31.15
76541;BMP280;65385;55.772;37.658;2023-06-19T04:47:47;100017.94;;;31.33
76541;BMP280;65385;55.772;37.658;2023-06-19T04:48:47;100008.28;;;31.32
76541;BMP280;65385;55.772;37.658;2023-06-19T04:49:51;100017.03;;;31.47
76541;BMP280;65385;55.772;37.658;2023-06-19T04:50:52;100015.16;;;31.40
76541;BMP280;65385;55.772;37.658;2023-06-19T04:51:53;100012.03;;;31.45
76541;BMP280;65385;55.772;37.658;2023-06-19T04:52:53;100008.13;;;31.50
76541;BMP280;65385;55.772;37.658;2023-06-19T04:53:54;100014.25;;;31.54
76541;BMP280;65385;55.772;37.658;2023-06-19T04:54:55;100013.41;;;31.61
76541;BMP280;65385;55.772;37.658;2023-06-19T04:55:55;100014.25;;;31.54
76541;BMP280;65385;55.772;37.658;2023-06-19T04:56:56;100010.47;;;31.48
76541;BMP280;65385;55.772;37.658;2023-06-19T04:57:56;100021.47;;;31.27
76541;BMP280;65385;55.772;37.658;2023-06-19T04:58:57;100020.16;;;31.05
76541;BMP280;65385;55.772;37.658;2023-06-19T05:00:00;100024.19;;;30.83
76541;BMP280;65385;55.772;37.658;2023-06-19T05:01:01;100013.50;;;30.61
76541;BMP280;65385;55.772;37.658;2023-06-19T05:02:02;100008.75;;;30.76
76541;BMP280;65385;55.772;37.658;2023-06-19T05:03:02;100018.81;;;30.72
76541;BMP280;65385;55.772;37.658;2023-06-19T05:04:03;100017.16;;;30.92
76541;BMP280;65385;55.772;37.658;2023-06-19T05:05:04;100015.44;;;31.09
76541;BMP280;65385;55.772;37.658;2023-06-19T05:06:08;100014.97;;;31.21
76541;BMP280;65385;55.772;37.658;2023-06-19T05:07:09;100017.94;;;31.30
76541;BMP280;65385;55.772;37.658;2023-06-19T05:08:12;100014.88;;;31.31
76541;BMP280;65385;55.772;37.658;2023-06-19T05:09:12;100011.38;;;31.34
76541;BMP280;65385;55.772;37.658;2023-06-19T05:10:13;100014.97;;;31.21
76541;BMP280;65385;55.772;37.658;2023-06-19T05:11:14;100021.00;;;31.35
76541;BMP280;65385;55.772;37.658;2023-06-19T05:12:14;100016.44;;;31.66
76541;BMP280;65385;55.772;37.658;2023-06-19T05:13:15;100020.03;;;31.56
76541;BMP280;65385;55.772;37.658;2023-06-19T05:14:16;100019.50;;;31.68
76541;BMP280;65385;55.772;37.658;2023-06-19T05:15:16;100026.47;;;31.73
76541;BMP280;65385;55.772;37.658;2023-06-19T05:16:17;100017.66;;;31.62
76541;BMP280;65385;55.772;37.658;2023-06-19T05:17:20;100017.31;;;31.90
76541;BMP280;65385;55.772;37.658;2023-06-19T05:18:20;100022.94;;;32.02
76541;BMP280;65385;55.772;37.658;2023-06-19T05:19:21;100018.84;;;32.21
76541;BMP280;65385;55.772;37.658;2023-06-19T05:20:22;100017.97;;;32.31
76541;BMP280;65385;55.772;37.658;2023-06-19T05:21:22;100025.00;;;32.25
76541;BMP280;65385;55.772;37.658;2023-06-19T05:22:23;100021.50;;;32.24
76541;BMP280;65385;55.772;37.658;2023-06-19T05:23:24;100020.13;;;32.39
76541;BMP280;65385;55.772;37.658;2023-06-19T05:24:25;100019.91;;;32.30
76541;BMP280;65385;55.772;37.658;2023-06-19T05:25:26;100015.56;;;32.36
76541;BMP280;65385;55.772;37.658;2023-06-19T05:26:28;100024.75;;;32.42
76541;BMP280;65385;55.772;37.658;2023-06-19T05:27:28;100020.88;;;32.43
76541;BMP280;65385;55.772;37.658;2023-06-19T05:28:29;100025.16;;;32.41
76541;BMP280;65385;55.772;37.658;2023-06-19T05:29:29;100022.50;;;32.37
76541;BMP280;65385;55.772;37.658;2023-06-19T05:30:31;100018.53;;;32.45
76541;BMP280;65385;55.772;37.658;2023-06-19T05:31:31;100016.06;;;32.55
76541;BMP280;65385;55.772;37.658;2023-06-19T05:32:32;100020.66;;;32.58
76541;BMP280;65385;55.772;37.658;2023-06-19T05:33:33;100017.94;;;32.58
76541;BMP280;65385;55.772;37.658;2023-06-19T05:34:33;100013.28;;;32.58
76541;BMP280;65385;55.772;37.658;2023-06-19T05:35:34;100008.44;;;32.46
76541;BMP280;65385;55.772;37.658;2023-06-19T05:36:35;100007.63;;;32.49
76541;BMP280;65385;55.772;37.658;2023-06-19T05:37:35;100005.56;;;32.57
76541;BMP280;65385;55.772;37.658;2023-06-19T05:38:36;100010.19;;;32.60
76541;BMP280;65385;55.772;37.658;2023-06-19T05:39:37;100002.09;;;32.29
76541;BMP280;65385;55.772;37.658;2023-06-19T05:40:37;100007.28;;;32.20
76541;BMP280;65385;55.772;37.658;2023-06-19T05:41:38;100016.47;;;31.96
76541;BMP280;65385;55.772;37.658;2023-06-19T05:42:40;100018.09;;;31.56
76541;BMP280;65385;55.772;37.658;2023-06-19T05:43:41;100008.88;;;31.10
76541;BMP280;65385;55.772;37.658;2023-06-19T05:44:41;100008.06;;;30.68
76541;BMP280;65385;55.772;37.658;2023-06-19T05:45:42;100013.28;;;30.31
76541;BMP280;65385;55.772;37.658;2023-06-19T05:46:42;100009.94;;;30.06